NORTHEAST SUFFOLK  -  Winter Weather Advisory Winter Weather Advisory        NORTHERN NASSAU  -  Winter Weather Advisory Winter Weather Advisory        NORTHWEST SUFFOLK  -  Winter Weather Advisory Winter Weather Advisory        SOUTHEAST SUFFOLK  -  Winter Weather Advisory Winter Weather Advisory        SOUTHERN NASSAU  -  Winter Weather Advisory Winter Weather Advisory        SOUTHWEST SUFFOLK  -  Winter Weather Advisory Winter Weather Advisory      

Active alerts

Northern Nassau
  Details for Northern Nassau Winter Weather Advisory
Southern Nassau
  Details for Southern Nassau Winter Weather Advisory
Northwest Suffolk
  Details for Northwest Suffolk Winter Weather Advisory
Southwest Suffolk
  Details for Southwest Suffolk Winter Weather Advisory
Northeast Suffolk
  Details for Northeast Suffolk Winter Weather Advisory
Southeast Suffolk
  Details for Southeast Suffolk Winter Weather Advisory


WXM80 ListenWXM80 Stop

You find our weather info also at:

UK Metoffice

WeatherCloud

Weather Underground

Northeastern Weather Network

AWEKAS

Citizen Weather Observer Program (CWOP)

HAMweather, WeatherForYou, PWS Weather


Weather Underground History page Text

Daily Summary for August 25, 2017 Units:  Metric    English   Both
« Previous Day
Next Day »
Daily Weekly Monthly Yearly Custom
  High: Low: Average:
Temperature: 28.1 °C 18.4 °C 21.8 °C
Dew Point: 18.6 °C 13.7 °C 15.4 °C
Humidity: 84 % 44 % 69 %
Wind Speed: 13.7 km/h 0 km/h 2.6 km/h
Wind Gust: 18.5 km/h - -
Wind:- - SSE
Pressure: 1020.5 hPa 1013.1 hPa -
Precipitation: 0 mm    
Historical Graphs
 
 
Tabular Data for August 25, 2017
Time Temperature Dew Point Pressure Wind Wind Speed Wind Gust Humidity Rainfall Rate (Hourly)
00:01 19.4 °C 15.3 °C 1013.1 hPa North 2.6 km/h 7.4 km/h 77 % 0 mm
00:06 19.6 °C 15 °C 1013.1 hPa North 4.3 km/h 12.9 km/h 75 % 0 mm
00:11 19.6 °C 15.1 °C 1013.1 hPa NW 0.3 km/h 5.6 km/h 75 % 0 mm
00:16 19.7 °C 15.3 °C 1013.4 hPa West 1.8 km/h 3.2 km/h 76 % 0 mm
00:21 19.7 °C 15.4 °C 1013.4 hPa Calm     76 % 0 mm
00:26 19.7 °C 15.2 °C 1013.4 hPa South 1.6 km/h 1.6 km/h 75 % 0 mm
00:32 19.7 °C 14.9 °C 1013.4 hPa North 1.3 km/h 7.4 km/h 74 % 0 mm
00:37 19.7 °C 14.9 °C 1013.4 hPa WNW 2.4 km/h 7.4 km/h 74 % 0 mm
00:42 19.7 °C 14.9 °C 1013.4 hPa NNE 2.4 km/h 11.1 km/h 74 % 0 mm
00:47 19.7 °C 14.9 °C 1013.4 hPa North 4.3 km/h 8 km/h 74 % 0 mm
00:52 19.6 °C 14.8 °C 1013.4 hPa West 1.9 km/h 5.6 km/h 74 % 0 mm
00:57 19.6 °C 14.8 °C 1013.8 hPa SW 0.8 km/h 3.2 km/h 74 % 0 mm
01:02 19.6 °C 14.8 °C 1013.8 hPa SW 0.3 km/h 3.7 km/h 74 % 0 mm
01:07 19.6 °C 15 °C 1013.8 hPa SW 0.5 km/h 3.7 km/h 75 % 0 mm
01:12 19.5 °C 14.9 °C 1013.8 hPa Calm     75 % 0 mm
01:17 19.5 °C 14.9 °C 1013.8 hPa Calm     75 % 0 mm
01:22 19.4 °C 15.1 °C 1013.8 hPa NNE 0.6 km/h 3.7 km/h 76 % 0 mm
01:27 19.3 °C 15 °C 1013.8 hPa Calm     76 % 0 mm
01:32 19.3 °C 14.7 °C 1013.8 hPa ENE 0.8 km/h 5.6 km/h 75 % 0 mm
01:37 19.3 °C 14.9 °C 1013.8 hPa ENE 0.2 km/h 1.9 km/h 76 % 0 mm
01:42 19.2 °C 14.9 °C 1013.8 hPa NE 0.8 km/h 1.9 km/h 76 % 0 mm
01:47 19.2 °C 14.8 °C 1013.8 hPa NE 0.3 km/h 1.9 km/h 76 % 0 mm
01:52 19.1 °C 14.8 °C 1013.8 hPa NNE 0.2 km/h 3.7 km/h 76 % 0 mm
01:57 19.1 °C 14.7 °C 1013.8 hPa North 2.4 km/h 5.6 km/h 76 % 0 mm
02:02 18.9 °C 14.6 °C 1013.8 hPa North 4.3 km/h 9.3 km/h 76 % 0 mm
02:08 18.9 °C 14.6 °C 1013.8 hPa NNE 3.7 km/h 6.4 km/h 76 % 0 mm
02:13 18.8 °C 14.7 °C 1013.8 hPa NE 3.4 km/h 5.6 km/h 77 % 0 mm
02:18 18.8 °C 14.7 °C 1013.8 hPa NE 5.6 km/h 11.3 km/h 77 % 0 mm
02:23 18.8 °C 14.3 °C 1013.8 hPa NE 4.3 km/h 11.1 km/h 75 % 0 mm
02:28 18.8 °C 14.3 °C 1014.1 hPa NNE 5.8 km/h 9.7 km/h 75 % 0 mm
02:33 18.7 °C 14.2 °C 1014.1 hPa NNE 3.7 km/h 7.4 km/h 75 % 0 mm
02:38 18.8 °C 14.4 °C 1014.1 hPa Calm   9.3 km/h 76 % 0 mm
02:43 18.7 °C 14.4 °C 1014.1 hPa North 0.8 km/h 5.6 km/h 76 % 0 mm
02:53 18.7 °C 14.6 °C 1014.1 hPa North 3.5 km/h 5.6 km/h 77 % 0 mm
02:58 18.7 °C 14.3 °C 1014.1 hPa NW 1.1 km/h 3.7 km/h 76 % 0 mm
03:03 18.7 °C 14.3 °C 1014.1 hPa NNE 3.7 km/h 7.4 km/h 76 % 0 mm
03:08 18.7 °C 14.3 °C 1014.4 hPa North 4.5 km/h 11.3 km/h 76 % 0 mm
03:13 18.7 °C 14.6 °C 1014.4 hPa NW 1.9 km/h 4.8 km/h 77 % 0 mm
03:18 18.8 °C 14.7 °C 1014.8 hPa NNW 6 km/h 9.3 km/h 77 % 0 mm
03:23 18.8 °C 14.3 °C 1014.8 hPa WNW 2.7 km/h 9.3 km/h 75 % 0 mm
03:28 18.8 °C 14.3 °C 1014.8 hPa North 1.9 km/h 5.6 km/h 75 % 0 mm
03:33 18.8 °C 14.7 °C 1014.8 hPa NNE 1.6 km/h 6.4 km/h 77 % 0 mm
03:38 18.8 °C 14.3 °C 1014.8 hPa NW 3.5 km/h 7.4 km/h 75 % 0 mm
03:43 18.8 °C 14.3 °C 1014.8 hPa West 5.6 km/h 5.6 km/h 75 % 0 mm
03:48 18.8 °C 14.3 °C 1014.8 hPa NNE 3.7 km/h 13 km/h 75 % 0 mm
03:54 18.8 °C 14.3 °C 1014.8 hPa WNW 3.5 km/h 5.6 km/h 75 % 0 mm
03:59 18.8 °C 14.5 °C 1014.8 hPa NNW 6.6 km/h 13 km/h 76 % 0 mm
04:04 18.9 °C 14.2 °C 1014.8 hPa NNE 6.9 km/h 18.5 km/h 74 % 0 mm
04:09 18.9 °C 14.3 °C 1014.8 hPa NNW 6.9 km/h 14.5 km/h 75 % 0 mm
04:14 18.9 °C 14.8 °C 1014.8 hPa North 6.6 km/h 9.3 km/h 77 % 0 mm
04:19 18.9 °C 14.6 °C 1014.8 hPa North 10.8 km/h 18.5 km/h 76 % 0 mm
04:24 18.9 °C 14.8 °C 1014.8 hPa NE 9.5 km/h 16.7 km/h 77 % 0 mm
04:29 18.9 °C 15.2 °C 1014.8 hPa North 6.6 km/h 16.1 km/h 79 % 0 mm
04:34 18.9 °C 14.8 °C 1014.8 hPa North 13.7 km/h 18.5 km/h 77 % 0 mm
04:39 18.8 °C 14.7 °C 1014.8 hPa North 6.8 km/h 13 km/h 77 % 0 mm
04:44 18.8 °C 14.7 °C 1014.8 hPa NE 5.1 km/h 13 km/h 77 % 0 mm
04:49 18.8 °C 14.7 °C 1014.8 hPa NNE 5 km/h 5.6 km/h 77 % 0 mm
04:54 18.8 °C 14.8 °C 1014.8 hPa NNE 5.8 km/h 11.1 km/h 78 % 0 mm
04:59 18.8 °C 14.8 °C 1014.8 hPa NNE 0.5 km/h 3.7 km/h 78 % 0 mm
05:04 18.8 °C 14.8 °C 1014.8 hPa North 0.5 km/h 3.7 km/h 78 % 0 mm
05:09 18.8 °C 14.7 °C 1014.8 hPa Calm   1.9 km/h 77 % 0 mm
05:14 18.8 °C 14.7 °C 1014.8 hPa Calm     77 % 0 mm
05:19 18.7 °C 14.8 °C 1014.8 hPa North 0.2 km/h 1.9 km/h 78 % 0 mm
05:24 18.7 °C 14.6 °C 1014.8 hPa NNW 1 km/h 3.7 km/h 77 % 0 mm
05:29 18.7 °C 14.3 °C 1014.8 hPa NNW 4.2 km/h 7.4 km/h 76 % 0 mm
05:34 18.7 °C 14.9 °C 1015.1 hPa North 5.8 km/h 11.1 km/h 79 % 0 mm
05:39 18.7 °C 15.3 °C 1015.5 hPa North 1 km/h 7.4 km/h 81 % 0 mm
05:44 18.7 °C 15.6 °C 1015.5 hPa NNE 0.6 km/h 3.7 km/h 82 % 0 mm
05:50 18.7 °C 15.3 °C 1015.5 hPa NNE 5 km/h 7.4 km/h 81 % 0 mm
05:55 18.6 °C 15.3 °C 1015.5 hPa North 4.2 km/h 6.4 km/h 81 % 0 mm
06:00 18.6 °C 15.4 °C 1015.5 hPa NNE 4.3 km/h 6.4 km/h 82 % 0 mm
06:05 18.6 °C 15.4 °C 1015.5 hPa North 3.7 km/h 7.4 km/h 82 % 0 mm
06:10 18.6 °C 15.4 °C 1015.5 hPa NE 6.9 km/h 9.7 km/h 82 % 0 mm
06:15 18.4 °C 15.3 °C 1015.8 hPa NE 3.2 km/h 5.6 km/h 82 % 0 mm
06:20 18.4 °C 15.5 °C 1015.8 hPa North 4.8 km/h 8 km/h 83 % 0 mm
06:25 18.4 °C 15.5 °C 1015.8 hPa NE 6.4 km/h 11.3 km/h 83 % 0 mm
06:30 18.4 °C 15.4 °C 1015.8 hPa NNE 4.3 km/h 9.7 km/h 83 % 0 mm
06:35 18.4 °C 15.6 °C 1015.8 hPa North 6 km/h 9.7 km/h 84 % 0 mm
06:40 18.4 °C 15.4 °C 1015.8 hPa North 4.2 km/h 11.3 km/h 83 % 0 mm
06:45 18.4 °C 15.4 °C 1015.8 hPa North 3.4 km/h 7.4 km/h 83 % 0 mm
06:50 18.4 °C 15.4 °C 1016.1 hPa NNW 3.2 km/h 9.3 km/h 83 % 0 mm
06:55 18.4 °C 15.6 °C 1016.1 hPa NNE 2.9 km/h 6.4 km/h 84 % 0 mm
07:00 18.4 °C 15.6 °C 1016.1 hPa North 5 km/h 9.3 km/h 84 % 0 mm
07:05 18.4 °C 15.7 °C 1016.1 hPa NNE 5.1 km/h 9.3 km/h 84 % 0 mm
07:10 18.4 °C 15.7 °C 1016.1 hPa North 6.6 km/h 11.1 km/h 84 % 0 mm
07:15 18.4 °C 15.5 °C 1016.1 hPa NE 6.1 km/h 11.1 km/h 83 % 0 mm
07:20 18.4 °C 15.5 °C 1016.5 hPa NNW 6.4 km/h 8 km/h 83 % 0 mm
07:26 18.4 °C 15.5 °C 1016.5 hPa NNE 9.2 km/h 14.8 km/h 83 % 0 mm
07:31 18.4 °C 15.5 °C 1016.1 hPa North 8 km/h 16.1 km/h 83 % 0 mm
07:36 18.5 °C 15.6 °C 1016.1 hPa NNE 9.7 km/h 9.7 km/h 83 % 0 mm
07:41 18.5 °C 15.7 °C 1016.1 hPa NNE 9.7 km/h 14.5 km/h 84 % 0 mm
07:46 18.6 °C 15.6 °C 1016.1 hPa North 8 km/h 14.5 km/h 83 % 0 mm
07:51 18.6 °C 15.8 °C 1016.5 hPa NNE 7.1 km/h 11.1 km/h 84 % 0 mm
07:56 18.7 °C 15.9 °C 1016.5 hPa NNE 4.2 km/h 14.8 km/h 84 % 0 mm
08:01 18.7 °C 15.9 °C 1016.5 hPa NNE 6.8 km/h 11.3 km/h 84 % 0 mm
08:06 18.8 °C 15.8 °C 1016.5 hPa North 6 km/h 9.3 km/h 83 % 0 mm
08:11 18.8 °C 15.8 °C 1016.5 hPa North 9.7 km/h 14.5 km/h 83 % 0 mm
08:16 18.8 °C 15.9 °C 1016.8 hPa North 4.8 km/h 12.9 km/h 83 % 0 mm
08:21 18.9 °C 15.9 °C 1016.5 hPa North 3.2 km/h 14.5 km/h 83 % 0 mm
08:26 18.9 °C 16 °C 1016.8 hPa North 8 km/h 16.1 km/h 83 % 0 mm
08:31 18.9 °C 16 °C 1016.8 hPa North 8 km/h 12.9 km/h 83 % 0 mm
08:36 19 °C 16.1 °C 1016.8 hPa North 4.8 km/h 11.3 km/h 83 % 0 mm
08:41 19.1 °C 16.1 °C 1016.8 hPa North 4.8 km/h 11.3 km/h 83 % 0 mm
08:46 19.1 °C 16.2 °C 1016.8 hPa North 4.8 km/h 14.5 km/h 83 % 0 mm
08:51 19.2 °C 16 °C 1016.8 hPa NNE 8.7 km/h 14.8 km/h 82 % 0 mm
08:56 19.2 °C 16.1 °C 1017.2 hPa North 4.8 km/h 14.5 km/h 82 % 0 mm
09:01 19.3 °C 16.1 °C 1017.2 hPa North 3.7 km/h 7.4 km/h 82 % 0 mm
09:06 19.3 °C 16 °C 1017.2 hPa North 9.7 km/h 14.5 km/h 81 % 0 mm
09:11 19.4 °C 16.1 °C 1017.2 hPa North 4.5 km/h 11.1 km/h 81 % 0 mm
09:16 19.4 °C 15.9 °C 1017.2 hPa North 4.8 km/h 11.3 km/h 80 % 0 mm
09:21 19.5 °C 15.9 °C 1017.2 hPa North 4.8 km/h 12.9 km/h 80 % 0 mm
09:26 19.6 °C 16 °C 1017.2 hPa North 3.2 km/h 11.3 km/h 80 % 0 mm
09:31 19.7 °C 16.1 °C 1017.2 hPa Calm   11.3 km/h 80 % 0 mm
09:36 19.8 °C 16.1 °C 1017.2 hPa NNE 3.2 km/h 11.3 km/h 79 % 0 mm
09:41 19.9 °C 16.1 °C 1017.2 hPa NNE 1.6 km/h 11.3 km/h 79 % 0 mm
09:46 20.2 °C 16.4 °C 1017.2 hPa NNW 4 km/h 7.4 km/h 79 % 0 mm
09:47 20.2 °C 16.3 °C 1017.2 hPa NNE 4.2 km/h 6.4 km/h 78 % 0 mm
09:52 20.6 °C 16.2 °C 1017.2 hPa ENE 3.5 km/h 11.1 km/h 76 % 0 mm
09:57 21.1 °C 16.2 °C 1017.2 hPa North 7.7 km/h 8 km/h 74 % 0 mm
10:02 21.4 °C 16.4 °C 1017.2 hPa North 4.5 km/h 5.6 km/h 73 % 0 mm
10:07 21.7 °C 16.2 °C 1017.5 hPa NNE 3.1 km/h 9.3 km/h 71 % 0 mm
10:12 21.8 °C 16.6 °C 1017.2 hPa North 2.7 km/h 6.4 km/h 72 % 0 mm
10:17 21.9 °C 16.4 °C 1017.5 hPa NNE 1 km/h 5.6 km/h 71 % 0 mm
10:22 21.9 °C 15.9 °C 1017.5 hPa NNE 2.1 km/h 6.4 km/h 69 % 0 mm
10:27 21.9 °C 16.4 °C 1017.5 hPa NNE 3.5 km/h 8 km/h 71 % 0 mm
10:32 21.9 °C 16.4 °C 1017.5 hPa NNE 5.8 km/h 7.4 km/h 71 % 0 mm
10:38 21.9 °C 16.2 °C 1017.5 hPa NE 1.1 km/h 5.6 km/h 70 % 0 mm
10:43 22.1 °C 16.2 °C 1017.5 hPa ENE 1.3 km/h 6.4 km/h 69 % 0 mm
10:48 22.3 °C 16.6 °C 1017.5 hPa NE 3.1 km/h 7.4 km/h 70 % 0 mm
10:53 22.6 °C 16.8 °C 1017.2 hPa NNE 2.7 km/h 5.6 km/h 70 % 0 mm
10:58 22.9 °C 16.7 °C 1017.2 hPa NNE 3.9 km/h 7.4 km/h 68 % 0 mm
11:03 23.2 °C 16.7 °C 1017.5 hPa NNE 2.6 km/h 5.6 km/h 67 % 0 mm
11:08 23.6 °C 17.1 °C 1017.5 hPa NNE 0.2 km/h 1.9 km/h 67 % 0 mm
11:13 24.1 °C 17.1 °C 1017.5 hPa NNE 0.6 km/h 5.6 km/h 65 % 0 mm
11:18 24.4 °C 16.9 °C 1017.5 hPa NE 0.6 km/h 3.2 km/h 63 % 0 mm
11:23 24.7 °C 16.9 °C 1017.5 hPa North 5.1 km/h 6.4 km/h 62 % 0 mm
11:28 24.9 °C 16.8 °C 1017.5 hPa North 3.9 km/h 7.4 km/h 61 % 0 mm
11:33 25.2 °C 17.4 °C 1017.5 hPa North 3.4 km/h 7.4 km/h 62 % 0 mm
11:38 25.2 °C 17.2 °C 1017.2 hPa NNE 3.1 km/h 7.4 km/h 61 % 0 mm
11:43 25.5 °C 17.2 °C 1017.5 hPa NE 1.4 km/h 6.4 km/h 60 % 0 mm
11:48 25.7 °C 16.8 °C 1017.5 hPa NNE 3.5 km/h 5.6 km/h 58 % 0 mm
11:53 25.9 °C 17.1 °C 1017.5 hPa NE 0.8 km/h 3.2 km/h 58 % 0 mm
11:58 26.2 °C 16.4 °C 1017.5 hPa NE 1.8 km/h 5.6 km/h 55 % 0 mm
12:03 26.4 °C 16.9 °C 1017.2 hPa NNW 3.9 km/h 6.4 km/h 56 % 0 mm
12:08 26.7 °C 17.2 °C 1017.2 hPa NNE 1.8 km/h 6.4 km/h 56 % 0 mm
12:13 26.9 °C 16.5 °C 1017.5 hPa NNW 0.5 km/h 1.9 km/h 53 % 0 mm
12:18 27.1 °C 16.7 °C 1017.2 hPa North 1 km/h 6.4 km/h 53 % 0 mm
12:23 27.2 °C 16.8 °C 1017.5 hPa NNE 2.9 km/h 5.6 km/h 53 % 0 mm
12:28 27.2 °C 15.9 °C 1017.5 hPa NNW 1.1 km/h 4.8 km/h 50 % 0 mm
12:33 27.3 °C 17.5 °C 1017.2 hPa NNW 4 km/h 5.6 km/h 55 % 0 mm
12:38 27.5 °C 18.2 °C 1017.5 hPa NW 1.6 km/h 5.6 km/h 57 % 0 mm
12:43 27.7 °C 16.9 °C 1017.2 hPa WNW 0.2 km/h 1.9 km/h 52 % 0 mm
12:48 27.9 °C 17.7 °C 1017.5 hPa NNW 0.6 km/h 3.7 km/h 54 % 0 mm
12:53 27.9 °C 16.2 °C 1017.2 hPa Calm   5.6 km/h 49 % 0 mm
12:58 28 °C 16.9 °C 1017.2 hPa WNW 2.7 km/h 5.6 km/h 51 % 0 mm
13:03 27.8 °C 15.8 °C 1017.2 hPa Calm   5.6 km/h 48 % 0 mm
13:09 27.9 °C 17.4 °C 1017.2 hPa NNW 2.3 km/h 5.6 km/h 53 % 0 mm
13:14 27.8 °C 17.1 °C 1017.2 hPa WNW 3.9 km/h 7.4 km/h 52 % 0 mm
13:19 27.8 °C 17.1 °C 1017.2 hPa NW 1.3 km/h 7.4 km/h 52 % 0 mm
13:24 27.9 °C 18.6 °C 1017.2 hPa NNW 0.3 km/h 3.7 km/h 57 % 0 mm
13:29 27.9 °C 17.2 °C 1017.2 hPa SW 1.6 km/h 5.6 km/h 52 % 0 mm
13:34 27.9 °C 16.2 °C 1017.2 hPa SW 1.9 km/h 5.6 km/h 49 % 0 mm
13:39 27.8 °C 17.1 °C 1017.2 hPa SW 1.8 km/h 4.8 km/h 52 % 0 mm
13:44 28 °C 18.1 °C 1017.2 hPa WSW 0.3 km/h 3.2 km/h 55 % 0 mm
13:49 28.1 °C 17.3 °C 1017.2 hPa WNW 1.4 km/h 5.6 km/h 52 % 0 mm
13:54 28.1 °C 16.4 °C 1017.2 hPa WSW 2.3 km/h 5.6 km/h 49 % 0 mm
13:59 28.1 °C 16.3 °C 1017.2 hPa West 3.9 km/h 9.7 km/h 49 % 0 mm
14:04 28 °C 16.6 °C 1017.2 hPa WSW 3.2 km/h 8 km/h 50 % 0 mm
14:09 27.9 °C 16.2 °C 1017.2 hPa West 1.1 km/h 9.3 km/h 49 % 0 mm
14:14 27.9 °C 16.5 °C 1017.2 hPa West 2.6 km/h 5.6 km/h 50 % 0 mm
14:19 27.9 °C 16.2 °C 1017.2 hPa WSW 4.7 km/h 7.4 km/h 49 % 0 mm
14:24 27.9 °C 15.2 °C 1017.2 hPa WSW 5.5 km/h 6.4 km/h 46 % 0 mm
14:29 27.9 °C 15.9 °C 1017.2 hPa WSW 5.6 km/h 9.3 km/h 48 % 0 mm
14:34 27.9 °C 17.2 °C 1017.2 hPa WSW 3.9 km/h 7.4 km/h 52 % 0 mm
14:39 27.9 °C 15.2 °C 1017.2 hPa West 2.3 km/h 3.7 km/h 46 % 0 mm
14:44 27.9 °C 16.6 °C 1016.8 hPa SW 5.1 km/h 9.7 km/h 50 % 0 mm
14:49 27.9 °C 15.6 °C 1017.2 hPa West 5.6 km/h 9.3 km/h 47 % 0 mm
14:54 27.9 °C 16.2 °C 1016.8 hPa SW 5.6 km/h 6.4 km/h 49 % 0 mm
14:59 27.9 °C 17.1 °C 1016.8 hPa WNW 1.8 km/h 3.7 km/h 52 % 0 mm
15:04 27.8 °C 15.2 °C 1016.8 hPa North 4.8 km/h 9.3 km/h 46 % 0 mm
15:09 27.8 °C 14.4 °C 1017.2 hPa WNW 4.7 km/h 5.6 km/h 44 % 0 mm
15:15 27.7 °C 15.7 °C 1016.8 hPa WNW 1.9 km/h 5.6 km/h 48 % 0 mm
15:20 27.7 °C 15 °C 1017.2 hPa West 2.6 km/h 5.6 km/h 46 % 0 mm
15:25 27.4 °C 14.8 °C 1017.2 hPa SW 3.2 km/h 5.6 km/h 46 % 0 mm
15:30 27.3 °C 15 °C 1017.2 hPa WNW 4.5 km/h 6.4 km/h 47 % 0 mm
15:35 27 °C 14.4 °C 1017.2 hPa WNW 0.3 km/h 3.7 km/h 46 % 0 mm
15:40 26.8 °C 14.6 °C 1017.2 hPa NW 4.2 km/h 9.3 km/h 47 % 0 mm
15:45 26.7 °C 14.2 °C 1017.2 hPa North 4.2 km/h 9.3 km/h 46 % 0 mm
15:50 26.7 °C 14.7 °C 1017.2 hPa NW 2.4 km/h 5.6 km/h 48 % 0 mm
15:55 26.7 °C 14.7 °C 1017.2 hPa WNW 2.6 km/h 6.4 km/h 48 % 0 mm
16:00 26.7 °C 14.4 °C 1017.2 hPa NW 1.9 km/h 7.4 km/h 47 % 0 mm
16:05 26.8 °C 15.2 °C 1017.2 hPa WNW 1.4 km/h 3.7 km/h 49 % 0 mm
16:10 26.8 °C 14.9 °C 1017.2 hPa West 0.6 km/h 5.6 km/h 48 % 0 mm
16:15 26.8 °C 14.8 °C 1017.2 hPa WSW 6 km/h 9.3 km/h 48 % 0 mm
16:20 26.6 °C 14.7 °C 1017.5 hPa SW 1.6 km/h 5.6 km/h 48 % 0 mm
16:25 26.4 °C 14.5 °C 1017.5 hPa SSW 1.8 km/h 7.4 km/h 48 % 0 mm
16:30 26.1 °C 14.6 °C 1017.5 hPa WNW 0.3 km/h 4.8 km/h 49 % 0 mm
16:35 25.8 °C 14.3 °C 1017.5 hPa West 0.2 km/h 5.6 km/h 49 % 0 mm
16:40 25.5 °C 14.6 °C 1017.5 hPa Calm   1.9 km/h 51 % 0 mm
16:45 25.2 °C 14.4 °C 1017.5 hPa WNW 1.3 km/h 9.7 km/h 51 % 0 mm
16:50 25.1 °C 14.5 °C 1017.8 hPa WNW 0.3 km/h 1.9 km/h 52 % 0 mm
16:55 24.8 °C 14.9 °C 1017.5 hPa Calm     54 % 0 mm
17:00 24.7 °C 14.2 °C 1017.8 hPa West 2.7 km/h 5.6 km/h 52 % 0 mm
17:05 24.6 °C 14.3 °C 1017.8 hPa WNW 3.1 km/h 7.4 km/h 53 % 0 mm
17:10 24.4 °C 14.6 °C 1017.8 hPa WNW 1.1 km/h 5.6 km/h 54 % 0 mm
17:15 24.3 °C 14.4 °C 1017.8 hPa WNW 3.1 km/h 5.6 km/h 54 % 0 mm
17:20 24.3 °C 14.7 °C 1017.8 hPa WNW 1.1 km/h 5.6 km/h 55 % 0 mm
17:25 24.2 °C 14.6 °C 1017.8 hPa WNW 0.6 km/h 1.9 km/h 55 % 0 mm
17:30 24.2 °C 14.8 °C 1017.8 hPa WNW 0.2 km/h 5.6 km/h 56 % 0 mm
17:35 24.1 °C 15.3 °C 1017.8 hPa Calm     58 % 0 mm
17:40 24.1 °C 15.8 °C 1017.8 hPa WNW 1 km/h 5.6 km/h 60 % 0 mm
17:45 24 °C 15.2 °C 1018.2 hPa WNW 0.3 km/h 1.9 km/h 58 % 0 mm
17:50 23.9 °C 15.4 °C 1018.2 hPa NNW 1.3 km/h 4.8 km/h 59 % 0 mm
17:55 23.9 °C 14.6 °C 1018.2 hPa NNW 0.6 km/h 1.9 km/h 56 % 0 mm
18:00 23.9 °C 14.6 °C 1018.2 hPa NNW 1 km/h 3.2 km/h 56 % 0 mm
18:05 23.9 °C 14.3 °C 1018.2 hPa NNW 1.3 km/h 5.6 km/h 55 % 0 mm
18:10 23.8 °C 14.2 °C 1018.2 hPa NNW 1.3 km/h 3.7 km/h 55 % 0 mm
18:15 23.8 °C 14.5 °C 1018.2 hPa Calm   1.6 km/h 56 % 0 mm
18:20 23.8 °C 14.2 °C 1018.2 hPa NNW 4.7 km/h 6.4 km/h 55 % 0 mm
18:25 23.8 °C 14.5 °C 1018.2 hPa NNW 0.2 km/h 1.9 km/h 56 % 0 mm
18:31 23.7 °C 14.4 °C 1018.2 hPa NNW 1.9 km/h 3.2 km/h 56 % 0 mm
18:36 23.7 °C 14.1 °C 1018.2 hPa Calm   4.8 km/h 55 % 0 mm
18:40 23.6 °C 13.7 °C 1018.2 hPa NNW 0.6 km/h 4.8 km/h 54 % 0 mm
18:45 23.5 °C 14.2 °C 1018.2 hPa Calm     56 % 0 mm
18:50 23.4 °C 14.2 °C 1018.2 hPa Calm     56 % 0 mm
18:55 23.3 °C 14.3 °C 1018.2 hPa Calm     57 % 0 mm
19:01 23.3 °C 14.3 °C 1018.2 hPa Calm     57 % 0 mm
19:06 23.2 °C 14.2 °C 1018.2 hPa Calm   1.9 km/h 57 % 0 mm
19:11 23.1 °C 14.4 °C 1018.5 hPa Calm   1.9 km/h 58 % 0 mm
19:16 22.9 °C 14.2 °C 1018.5 hPa Calm   1.6 km/h 58 % 0 mm
19:21 22.9 °C 14.2 °C 1018.5 hPa Calm   3.2 km/h 58 % 0 mm
19:26 22.8 °C 14.3 °C 1018.5 hPa Calm     59 % 0 mm
19:31 22.7 °C 14.2 °C 1018.5 hPa Calm     59 % 0 mm
19:36 22.6 °C 14.7 °C 1018.5 hPa Calm     61 % 0 mm
19:41 22.4 °C 15.1 °C 1018.8 hPa Calm     63 % 0 mm
19:46 22.3 °C 15.4 °C 1018.5 hPa Calm     65 % 0 mm
19:51 22.2 °C 15.6 °C 1018.8 hPa Calm     66 % 0 mm
19:56 22.1 °C 15.4 °C 1018.8 hPa Calm     66 % 0 mm
20:01 21.9 °C 15.2 °C 1018.8 hPa Calm     66 % 0 mm
20:06 21.7 °C 15.3 °C 1018.8 hPa Calm     67 % 0 mm
20:11 21.4 °C 15.3 °C 1018.8 hPa Calm     68 % 0 mm
20:17 21.2 °C 15.3 °C 1019.2 hPa Calm     69 % 0 mm
20:22 21 °C 15.3 °C 1019.2 hPa Calm     70 % 0 mm
20:27 20.8 °C 15.4 °C 1019.2 hPa Calm     71 % 0 mm
20:32 20.6 °C 15.2 °C 1019.5 hPa Calm     71 % 0 mm
20:37 20.4 °C 15 °C 1019.5 hPa Calm     71 % 0 mm
20:42 20.3 °C 15.1 °C 1019.5 hPa Calm   1.9 km/h 72 % 0 mm
20:45 20.2 °C 15 °C 1019.5 hPa Calm     72 % 0 mm
20:50 20.1 °C 14.9 °C 1019.5 hPa Calm   1.9 km/h 72 % 0 mm
20:55 20 °C 15 °C 1019.5 hPa Calm     73 % 0 mm
21:00 19.9 °C 15.1 °C 1019.5 hPa Calm     74 % 0 mm
21:05 19.8 °C 15 °C 1019.5 hPa Calm     74 % 0 mm
21:10 19.7 °C 15.1 °C 1019.9 hPa Calm     75 % 0 mm
21:15 19.6 °C 15.1 °C 1019.9 hPa Calm     75 % 0 mm
21:20 19.5 °C 15.2 °C 1019.9 hPa Calm     76 % 0 mm
21:25 19.4 °C 15.3 °C 1019.9 hPa Calm     77 % 0 mm
21:31 19.3 °C 15.4 °C 1019.9 hPa Calm     78 % 0 mm
21:36 19.3 °C 15.4 °C 1019.9 hPa Calm     78 % 0 mm
21:41 19.3 °C 15.6 °C 1019.9 hPa Calm     79 % 0 mm
21:46 19.2 °C 15.5 °C 1019.9 hPa Calm   1.6 km/h 79 % 0 mm
21:51 19.2 °C 15.6 °C 1019.9 hPa Calm   1.6 km/h 80 % 0 mm
21:56 19.2 °C 15.6 °C 1019.9 hPa Calm   1.6 km/h 80 % 0 mm
22:01 19.2 °C 15.6 °C 1019.9 hPa Calm     80 % 0 mm
22:06 19.2 °C 15.6 °C 1019.9 hPa Calm     80 % 0 mm
22:11 19.2 °C 15.6 °C 1019.9 hPa Calm     80 % 0 mm
22:16 19.2 °C 15.6 °C 1019.9 hPa Calm     80 % 0 mm
22:21 19.2 °C 15.4 °C 1019.9 hPa Calm     79 % 0 mm
22:26 19.2 °C 15.2 °C 1019.9 hPa NNW 0.6 km/h 1.9 km/h 78 % 0 mm
22:31 19.2 °C 15.2 °C 1019.9 hPa Calm   1.9 km/h 78 % 0 mm
22:36 19.2 °C 15.4 °C 1019.9 hPa Calm     79 % 0 mm
22:41 19.2 °C 15.2 °C 1019.9 hPa NNE 4.3 km/h 6.4 km/h 78 % 0 mm
22:42 19.2 °C 15.2 °C 1019.9 hPa North 4.3 km/h 7.4 km/h 78 % 0 mm
22:48 19.2 °C 15.3 °C 1020.2 hPa NE 0.2 km/h 1.9 km/h 78 % 0 mm
22:53 19.2 °C 15.1 °C 1020.2 hPa ENE 1.6 km/h 5.6 km/h 77 % 0 mm
22:58 19.3 °C 15.2 °C 1020.2 hPa NNE 2.9 km/h 5.6 km/h 77 % 0 mm
23:03 19.3 °C 15.4 °C 1020.2 hPa Calm   1.9 km/h 78 % 0 mm
23:08 19.4 °C 15.5 °C 1020.2 hPa North 3.4 km/h 5.6 km/h 78 % 0 mm
23:14 19.5 °C 15.6 °C 1020.2 hPa North 1.4 km/h 4.8 km/h 78 % 0 mm
23:19 19.6 °C 15.7 °C 1020.2 hPa NNE 1.6 km/h 5.6 km/h 78 % 0 mm
23:26 19.7 °C 15.8 °C 1020.5 hPa North 1.1 km/h 3.7 km/h 78 % 0 mm
23:29 19.7 °C 15.8 °C 1020.5 hPa North 0.3 km/h 3.7 km/h 78 % 0 mm
23:31 19.8 °C 15.8 °C 1020.5 hPa NNE 4 km/h 5.6 km/h 78 % 0 mm
23:33 19.8 °C 15.9 °C 1020.5 hPa NNE 2.4 km/h 5.6 km/h 78 % 0 mm
23:38 19.9 °C 15.7 °C 1020.5 hPa NNE 1.3 km/h 4.8 km/h 77 % 0 mm
23:43 20 °C 15.7 °C 1020.5 hPa Calm   1.9 km/h 76 % 0 mm
23:48 20.1 °C 15.9 °C 1020.5 hPa NNE 0.5 km/h 3.7 km/h 77 % 0 mm
23:53 20.2 °C 16 °C 1020.5 hPa NNE 5.1 km/h 9.3 km/h 77 % 0 mm
23:59 20.2 °C 16.3 °C 1020.5 hPa NNE 3.5 km/h 9.3 km/h 78 % 0 mm
Crab Meadow Weather
Compliments of Weather Underground - 3 mb

Script developed by  Jim McMurry - jmcmurry@mwt.net Adapted for the template by  Wim van der Kuil - Leuven-Template.eu

Weather Terms: Flood Warning - General or areal flooding of streets, low-lying areas, urban storm drains, creeks and small streams is occurring, imminent, or highly likely. Flood warnings are issued for flooding that occurs more than 6 hours after the excessive rainfall. These warnings are issued on a county by county basis by the local Weather Forecast Office in Upton and are generally in effect for 6 to 12 hours.